sensor_id;sensor_type;location;lat;lon;timestamp;pressure;altitude;pressure_sealevel;temperature;humidity
77112;BME280;66064;50.226;14.344;2023-07-09T00:01:53;99893.38;;;16.66;70.90
77112;BME280;66064;50.226;14.344;2023-07-09T00:04:19;99879.97;;;16.63;70.99
77112;BME280;66064;50.226;14.344;2023-07-09T00:06:45;99888.88;;;16.71;70.80
77112;BME280;66064;50.226;14.344;2023-07-09T00:09:20;99902.44;;;16.50;72.25
77112;BME280;66064;50.226;14.344;2023-07-09T00:11:47;99902.44;;;16.50;71.63
77112;BME280;66064;50.226;14.344;2023-07-09T00:14:15;99898.84;;;16.51;72.62
77112;BME280;66064;50.226;14.344;2023-07-09T00:16:44;99911.53;;;16.34;73.34
77112;BME280;66064;50.226;14.344;2023-07-09T00:19:14;99907.03;;;16.39;72.39
77112;BME280;66064;50.226;14.344;2023-07-09T00:21:42;99910.63;;;16.35;72.73
77112;BME280;66064;50.226;14.344;2023-07-09T00:24:13;99906.19;;;16.28;73.76
77112;BME280;66064;50.226;14.344;2023-07-09T00:26:40;99912.56;;;16.15;73.69
77112;BME280;66064;50.226;14.344;2023-07-09T00:29:10;99911.69;;;16.09;74.44
77112;BME280;66064;50.226;14.344;2023-07-09T00:31:38;99900.91;;;16.16;73.60
77112;BME280;66064;50.226;14.344;2023-07-09T00:34:13;99898.25;;;16.13;74.52
77112;BME280;66064;50.226;14.344;2023-07-09T00:36:41;99899.22;;;15.99;74.83
77112;BME280;66064;50.226;14.344;2023-07-09T00:39:18;99904.59;;;16.02;75.07
77112;BME280;66064;50.226;14.344;2023-07-09T00:41:45;99904.56;;;16.05;74.77
77112;BME280;66064;50.226;14.344;2023-07-09T00:49:26;99893.84;;;16.02;74.69
77112;BME280;66064;50.226;14.344;2023-07-09T00:51:56;99884.03;;;15.98;74.14
77112;BME280;66064;50.226;14.344;2023-07-09T00:54:33;99894.78;;;15.94;74.70
77112;BME280;66064;50.226;14.344;2023-07-09T00:57:10;99886.78;;;15.86;74.09
77112;BME280;66064;50.226;14.344;2023-07-09T00:59:37;99895.72;;;15.88;74.34
77112;BME280;66064;50.226;14.344;2023-07-09T01:02:06;99886.81;;;15.83;75.10
77112;BME280;66064;50.226;14.344;2023-07-09T01:04:33;99883.25;;;15.75;74.84
77112;BME280;66064;50.226;14.344;2023-07-09T01:07:00;99895.75;;;15.79;74.74
77112;BME280;66064;50.226;14.344;2023-07-09T01:09:26;99898.44;;;15.76;74.56
77112;BME280;66064;50.226;14.344;2023-07-09T01:11:53;99894.94;;;15.71;76.29
77112;BME280;66064;50.226;14.344;2023-07-09T01:14:22;99903.00;;;15.65;76.24
77112;BME280;66064;50.226;14.344;2023-07-09T01:17:02;99899.41;;;15.63;76.14
77112;BME280;66064;50.226;14.344;2023-07-09T01:19:39;99902.16;;;15.58;74.99
77112;BME280;66064;50.226;14.344;2023-07-09T01:22:14;99892.28;;;15.51;75.27
77112;BME280;66064;50.226;14.344;2023-07-09T01:25:00;99900.34;;;15.50;76.41
77112;BME280;66064;50.226;14.344;2023-07-09T01:27:34;99902.19;;;15.40;75.91
77112;BME280;66064;50.226;14.344;2023-07-09T01:30:03;99907.53;;;15.42;76.52
77112;BME280;66064;50.226;14.344;2023-07-09T01:32:32;99894.16;;;15.32;76.27
77112;BME280;66064;50.226;14.344;2023-07-09T01:35:01;99899.50;;;15.35;78.22
77112;BME280;66064;50.226;14.344;2023-07-09T01:37:33;99898.63;;;15.30;77.68
77112;BME280;66064;50.226;14.344;2023-07-09T01:40:00;99899.50;;;15.32;77.91
77112;BME280;66064;50.226;14.344;2023-07-09T01:42:27;99904.00;;;15.32;77.71
77112;BME280;66064;50.226;14.344;2023-07-09T01:44:55;99900.41;;;15.33;77.93
77112;BME280;66064;50.226;14.344;2023-07-09T01:47:22;99883.47;;;15.17;78.22
77112;BME280;66064;50.226;14.344;2023-07-09T01:49:50;99905.81;;;15.15;79.11
77112;BME280;66064;50.226;14.344;2023-07-09T01:52:18;99906.72;;;15.23;78.40
77112;BME280;66064;50.226;14.344;2023-07-09T01:54:45;99910.28;;;15.23;78.60
77112;BME280;66064;50.226;14.344;2023-07-09T01:57:26;99902.25;;;15.22;78.24
77112;BME280;66064;50.226;14.344;2023-07-09T02:00:00;99906.72;;;15.21;77.69
77112;BME280;66064;50.226;14.344;2023-07-09T02:02:26;99905.81;;;15.13;77.79
77112;BME280;66064;50.226;14.344;2023-07-09T02:04:54;99892.47;;;15.01;78.05
77112;BME280;66064;50.226;14.344;2023-07-09T02:07:23;99903.19;;;15.01;77.28
77112;BME280;66064;50.226;14.344;2023-07-09T02:09:49;99912.13;;;14.97;77.11
77112;BME280;66064;50.226;14.344;2023-07-09T02:12:16;99905.00;;;14.93;77.12
77112;BME280;66064;50.226;14.344;2023-07-09T02:14:43;99909.47;;;14.88;77.14
77112;BME280;66064;50.226;14.344;2023-07-09T02:17:11;99911.25;;;14.84;78.13
77112;BME280;66064;50.226;14.344;2023-07-09T02:19:37;99912.16;;;14.82;78.24
77112;BME280;66064;50.226;14.344;2023-07-09T02:22:04;99909.50;;;14.76;78.04
77112;BME280;66064;50.226;14.344;2023-07-09T02:24:30;99911.28;;;14.74;78.34
77112;BME280;66064;50.226;14.344;2023-07-09T02:26:57;99913.94;;;14.67;78.44
77112;BME280;66064;50.226;14.344;2023-07-09T02:29:24;99912.16;;;14.66;79.07
77112;BME280;66064;50.226;14.344;2023-07-09T02:31:52;99915.72;;;14.62;78.53
77112;BME280;66064;50.226;14.344;2023-07-09T02:34:19;99930.91;;;14.62;79.21
77112;BME280;66064;50.226;14.344;2023-07-09T02:36:46;99918.44;;;14.55;79.14
77112;BME280;66064;50.226;14.344;2023-07-09T02:39:14;99936.28;;;14.60;79.49
77112;BME280;66064;50.226;14.344;2023-07-09T02:41:40;99934.50;;;14.58;79.46
77112;BME280;66064;50.226;14.344;2023-07-09T02:44:07;99937.19;;;14.58;79.26
77112;BME280;66064;50.226;14.344;2023-07-09T02:46:33;99933.63;;;14.59;77.60
77112;BME280;66064;50.226;14.344;2023-07-09T02:49:00;99918.41;;;14.50;78.11
77112;BME280;66064;50.226;14.344;2023-07-09T02:51:27;99930.03;;;14.52;78.87
77112;BME280;66064;50.226;14.344;2023-07-09T02:53:57;99946.09;;;14.49;79.48
77112;BME280;66064;50.226;14.344;2023-07-09T02:56:24;99929.16;;;14.43;78.79
77112;BME280;66064;50.226;14.344;2023-07-09T02:58:50;99933.56;;;14.45;79.71
77112;BME280;66064;50.226;14.344;2023-07-09T03:01:17;99935.38;;;14.46;80.38
77112;BME280;66064;50.226;14.344;2023-07-09T03:03:43;99931.78;;;14.38;81.88
77112;BME280;66064;50.226;14.344;2023-07-09T03:06:10;99916.59;;;14.34;82.35
77112;BME280;66064;50.226;14.344;2023-07-09T03:08:36;99921.06;;;14.36;81.90
77112;BME280;66064;50.226;14.344;2023-07-09T03:11:12;99931.81;;;14.44;81.38
77112;BME280;66064;50.226;14.344;2023-07-09T03:13:38;99924.69;;;14.40;81.37
77112;BME280;66064;50.226;14.344;2023-07-09T03:16:04;99943.41;;;14.46;80.69
77112;BME280;66064;50.226;14.344;2023-07-09T03:18:30;99937.16;;;14.47;80.82
77112;BME280;66064;50.226;14.344;2023-07-09T03:20:57;99934.50;;;14.44;80.89
77112;BME280;66064;50.226;14.344;2023-07-09T03:23:24;99952.31;;;14.47;82.02
77112;BME280;66064;50.226;14.344;2023-07-09T03:25:50;99950.53;;;14.49;82.10
77112;BME280;66064;50.226;14.344;2023-07-09T03:28:16;99946.09;;;14.49;81.60
77112;BME280;66064;50.226;14.344;2023-07-09T03:30:43;99953.25;;;14.56;81.57
77112;BME280;66064;50.226;14.344;2023-07-09T03:33:10;99948.78;;;14.57;81.52
77112;BME280;66064;50.226;14.344;2023-07-09T03:35:37;99955.94;;;14.58;81.65
77112;BME280;66064;50.226;14.344;2023-07-09T03:38:06;99957.72;;;14.60;82.05
77112;BME280;66064;50.226;14.344;2023-07-09T03:40:33;99953.22;;;14.65;81.55
77112;BME280;66064;50.226;14.344;2023-07-09T03:42:59;99944.31;;;14.66;81.13
77112;BME280;66064;50.226;14.344;2023-07-09T03:45:25;99958.56;;;14.78;81.34
77112;BME280;66064;50.226;14.344;2023-07-09T03:47:52;99955.03;;;14.85;81.05
77112;BME280;66064;50.226;14.344;2023-07-09T03:50:18;99959.50;;;14.90;80.54
77112;BME280;66064;50.226;14.344;2023-07-09T03:52:44;99958.56;;;14.96;80.85
77112;BME280;66064;50.226;14.344;2023-07-09T03:55:10;99960.34;;;15.00;80.16
77112;BME280;66064;50.226;14.344;2023-07-09T03:57:36;99959.47;;;15.05;80.86
77112;BME280;66064;50.226;14.344;2023-07-09T04:00:06;99961.22;;;15.13;79.91
77112;BME280;66064;50.226;14.344;2023-07-09T04:02:37;99965.69;;;15.21;80.26
77112;BME280;66064;50.226;14.344;2023-07-09T04:05:04;99961.19;;;15.31;79.88
77112;BME280;66064;50.226;14.344;2023-07-09T04:07:30;99963.84;;;15.45;79.54
77112;BME280;66064;50.226;14.344;2023-07-09T04:09:56;99963.81;;;15.60;78.99
77112;BME280;66064;50.226;14.344;2023-07-09T04:12:22;99971.78;;;15.78;79.05
77112;BME280;66064;50.226;14.344;2023-07-09T04:14:48;99972.59;;;15.98;78.66
77112;BME280;66064;50.226;14.344;2023-07-09T04:17:14;99973.38;;;16.22;77.44
77112;BME280;66064;50.226;14.344;2023-07-09T04:19:40;99951.78;;;16.38;76.10
77112;BME280;66064;50.226;14.344;2023-07-09T04:22:06;99970.25;;;16.86;74.72
77112;BME280;66064;50.226;14.344;2023-07-09T04:24:32;99965.34;;;17.29;72.99
77112;BME280;66064;50.226;14.344;2023-07-09T04:26:59;99963.91;;;17.80;70.64
77112;BME280;66064;50.226;14.344;2023-07-09T04:29:29;99958.75;;;18.28;68.82
77112;BME280;66064;50.226;14.344;2023-07-09T04:31:55;99962.97;;;19.02;66.09
77112;BME280;66064;50.226;14.344;2023-07-09T04:34:22;99954.13;;;19.43;64.60
77112;BME280;66064;50.226;14.344;2023-07-09T04:36:48;99961.78;;;20.09;62.65
77112;BME280;66064;50.226;14.344;2023-07-09T04:39:14;99970.94;;;20.44;61.46
77112;BME280;66064;50.226;14.344;2023-07-09T04:41:40;99967.44;;;21.11;58.94
77112;BME280;66064;50.226;14.344;2023-07-09T04:44:06;99968.44;;;21.09;57.81
77112;BME280;66064;50.226;14.344;2023-07-09T04:46:32;99949.78;;;20.96;57.71
77112;BME280;66064;50.226;14.344;2023-07-09T04:48:58;99951.13;;;21.48;57.13
77112;BME280;66064;50.226;14.344;2023-07-09T04:51:26;99961.31;;;22.61;54.14
77112;BME280;66064;50.226;14.344;2023-07-09T04:53:52;99962.84;;;22.97;52.91
77112;BME280;66064;50.226;14.344;2023-07-09T04:56:18;99962.84;;;22.97;53.30
77112;BME280;66064;50.226;14.344;2023-07-09T04:58:45;99969.53;;;23.14;52.39
77112;BME280;66064;50.226;14.344;2023-07-09T05:01:11;99966.25;;;23.80;51.50
77112;BME280;66064;50.226;14.344;2023-07-09T05:03:37;99964.59;;;24.24;49.41
77112;BME280;66064;50.226;14.344;2023-07-09T05:06:04;99970.84;;;24.71;48.95
77112;BME280;66064;50.226;14.344;2023-07-09T05:08:30;99971.47;;;25.22;47.39
77112;BME280;66064;50.226;14.344;2023-07-09T05:10:57;99971.94;;;25.73;46.22
77112;BME280;66064;50.226;14.344;2023-07-09T05:13:24;99968.34;;;26.12;45.08
77112;BME280;66064;50.226;14.344;2023-07-09T05:15:50;99959.22;;;26.51;42.77
77112;BME280;66064;50.226;14.344;2023-07-09T05:18:17;99972.91;;;27.05;42.05
77112;BME280;66064;50.226;14.344;2023-07-09T05:20:44;99973.56;;;27.28;40.57
77112;BME280;66064;50.226;14.344;2023-07-09T05:23:10;99975.34;;;27.29;40.41
77112;BME280;66064;50.226;14.344;2023-07-09T05:25:36;99963.25;;;27.69;39.63
77112;BME280;66064;50.226;14.344;2023-07-09T05:28:03;99965.22;;;28.33;38.49
77112;BME280;66064;50.226;14.344;2023-07-09T05:30:30;99964.81;;;29.03;36.22
77112;BME280;66064;50.226;14.344;2023-07-09T05:32:56;99953.84;;;29.49;34.51
77112;BME280;66064;50.226;14.344;2023-07-09T05:35:24;99967.09;;;30.43;32.62
77112;BME280;66064;50.226;14.344;2023-07-09T05:37:54;99963.38;;;30.30;32.16
77112;BME280;66064;50.226;14.344;2023-07-09T05:40:21;99976.09;;;30.74;31.54
77112;BME280;66064;50.226;14.344;2023-07-09T05:42:48;99966.16;;;31.39;30.18
77112;BME280;66064;50.226;14.344;2023-07-09T05:45:15;99964.31;;;32.05;29.40
77112;BME280;66064;50.226;14.344;2023-07-09T05:47:41;99968.88;;;32.67;29.08
77112;BME280;66064;50.226;14.344;2023-07-09T05:50:08;99967.09;;;32.66;29.28
77112;BME280;66064;50.226;14.344;2023-07-09T05:52:34;99974.75;;;31.99;28.45
77112;BME280;66064;50.226;14.344;2023-07-09T05:55:00;99966.22;;;30.98;29.55
77112;BME280;66064;50.226;14.344;2023-07-09T05:57:26;99954.50;;;32.00;28.36
77112;BME280;66064;50.226;14.344;2023-07-09T05:59:52;99962.59;;;33.02;28.57
77112;BME280;66064;50.226;14.344;2023-07-09T06:02:20;99964.44;;;34.08;26.58
77112;BME280;66064;50.226;14.344;2023-07-09T06:04:46;99962.97;;;34.49;26.23
77112;BME280;66064;50.226;14.344;2023-07-09T06:07:15;99961.06;;;34.60;25.38
77112;BME280;66064;50.226;14.344;2023-07-09T06:09:41;99959.53;;;35.01;24.82
77112;BME280;66064;50.226;14.344;2023-07-09T06:12:08;99964.53;;;35.07;24.92
77112;BME280;66064;50.226;14.344;2023-07-09T06:14:35;99956.19;;;35.29;23.47
77112;BME280;66064;50.226;14.344;2023-07-09T06:17:01;99956.97;;;35.73;22.88
77112;BME280;66064;50.226;14.344;2023-07-09T06:19:27;99952.00;;;35.67;22.64
77112;BME280;66064;50.226;14.344;2023-07-09T06:21:53;99965.88;;;36.39;23.48
77112;BME280;66064;50.226;14.344;2023-07-09T06:24:19;99962.97;;;36.40;22.67
77112;BME280;66064;50.226;14.344;2023-07-09T06:26:48;99951.19;;;37.67;21.00
77112;BME280;66064;50.226;14.344;2023-07-09T06:29:14;99954.84;;;38.43;20.31
77112;BME280;66064;50.226;14.344;2023-07-09T06:31:40;99952.00;;;39.35;18.79
77112;BME280;66064;50.226;14.344;2023-07-09T06:34:08;99961.75;;;38.76;20.13
77112;BME280;66064;50.226;14.344;2023-07-09T06:36:35;99957.25;;;39.20;20.09
77112;BME280;66064;50.226;14.344;2023-07-09T06:39:02;99965.84;;;39.80;19.68
77112;BME280;66064;50.226;14.344;2023-07-09T06:41:28;99970.50;;;40.15;18.52
77112;BME280;66064;50.226;14.344;2023-07-09T06:43:54;99955.44;;;40.26;18.58
77112;BME280;66064;50.226;14.344;2023-07-09T06:46:20;99960.31;;;41.34;17.47
77112;BME280;66064;50.226;14.344;2023-07-09T06:48:46;99960.91;;;41.70;17.87
77112;BME280;66064;50.226;14.344;2023-07-09T06:51:13;99964.03;;;41.91;17.98
77112;BME280;66064;50.226;14.344;2023-07-09T06:53:38;99964.75;;;42.17;16.82
77112;BME280;66064;50.226;14.344;2023-07-09T06:56:05;99960.53;;;41.97;16.99
77112;BME280;66064;50.226;14.344;2023-07-09T06:58:32;99969.94;;;42.29;16.84
77112;BME280;66064;50.226;14.344;2023-07-09T07:01:02;99964.19;;;43.33;15.62
77112;BME280;66064;50.226;14.344;2023-07-09T07:03:29;99957.06;;;43.14;16.09
77112;BME280;66064;50.226;14.344;2023-07-09T07:05:56;99956.88;;;42.76;15.11
77112;BME280;66064;50.226;14.344;2023-07-09T07:08:24;99959.97;;;42.98;16.51
77112;BME280;66064;50.226;14.344;2023-07-09T07:10:56;99967.75;;;42.71;16.53
77112;BME280;66064;50.226;14.344;2023-07-09T07:13:35;99953.84;;;43.56;15.67
77112;BME280;66064;50.226;14.344;2023-07-09T07:16:03;99960.19;;;43.95;15.41
77112;BME280;66064;50.226;14.344;2023-07-09T07:18:30;99962.75;;;44.05;15.53
77112;BME280;66064;50.226;14.344;2023-07-09T07:20:56;99963.25;;;45.62;14.94
77112;BME280;66064;50.226;14.344;2023-07-09T07:23:22;99970.47;;;44.99;13.43
77112;BME280;66064;50.226;14.344;2023-07-09T07:25:49;99964.00;;;43.34;15.10
77112;BME280;66064;50.226;14.344;2023-07-09T07:28:16;99963.88;;;42.72;14.81
77112;BME280;66064;50.226;14.344;2023-07-09T07:30:42;99963.63;;;44.43;15.31
77112;BME280;66064;50.226;14.344;2023-07-09T07:33:08;99962.72;;;45.02;14.12
77112;BME280;66064;50.226;14.344;2023-07-09T07:35:34;99966.69;;;45.22;14.66
77112;BME280;66064;50.226;14.344;2023-07-09T07:38:00;99951.22;;;46.39;13.79
77112;BME280;66064;50.226;14.344;2023-07-09T07:40:26;99957.50;;;44.69;14.59
77112;BME280;66064;50.226;14.344;2023-07-09T07:42:52;99946.91;;;46.71;12.05
77112;BME280;66064;50.226;14.344;2023-07-09T07:45:18;99952.91;;;47.03;11.94
77112;BME280;66064;50.226;14.344;2023-07-09T07:47:44;99939.09;;;46.73;12.07
77112;BME280;66064;50.226;14.344;2023-07-09T07:50:10;99945.16;;;47.18;12.67
77112;BME280;66064;50.226;14.344;2023-07-09T07:52:36;99939.97;;;47.28;11.85
77112;BME280;66064;50.226;14.344;2023-07-09T07:55:07;99944.78;;;46.52;11.98
77112;BME280;66064;50.226;14.344;2023-07-09T07:57:33;99937.28;;;45.39;13.06
77112;BME280;66064;50.226;14.344;2023-07-09T08:00:00;99939.53;;;45.50;13.22
77112;BME280;66064;50.226;14.344;2023-07-09T08:02:26;99938.88;;;46.40;13.72
77112;BME280;66064;50.226;14.344;2023-07-09T08:04:52;99936.47;;;47.13;12.63
77112;BME280;66064;50.226;14.344;2023-07-09T08:07:18;99939.31;;;46.78;11.57
77112;BME280;66064;50.226;14.344;2023-07-09T08:09:45;99929.09;;;47.12;10.92
77112;BME280;66064;50.226;14.344;2023-07-09T08:12:12;99937.41;;;47.33;11.79
77112;BME280;66064;50.226;14.344;2023-07-09T08:14:39;99940.16;;;48.27;12.19
77112;BME280;66064;50.226;14.344;2023-07-09T08:17:05;99928.75;;;48.73;11.58
77112;BME280;66064;50.226;14.344;2023-07-09T08:19:32;99920.38;;;49.81;10.75
77112;BME280;66064;50.226;14.344;2023-07-09T08:21:58;99928.28;;;50.22;10.28
77112;BME280;66064;50.226;14.344;2023-07-09T08:24:24;99929.06;;;48.52;10.29
77112;BME280;66064;50.226;14.344;2023-07-09T08:26:50;99938.13;;;47.00;13.34
77112;BME280;66064;50.226;14.344;2023-07-09T08:29:16;99933.78;;;48.64;10.61
77112;BME280;66064;50.226;14.344;2023-07-09T08:31:42;99930.16;;;49.09;11.25
77112;BME280;66064;50.226;14.344;2023-07-09T08:34:09;99930.81;;;47.93;10.77
77112;BME280;66064;50.226;14.344;2023-07-09T08:36:35;99923.16;;;48.40;11.31
77112;BME280;66064;50.226;14.344;2023-07-09T08:39:02;99925.03;;;50.00;10.70
77112;BME280;66064;50.226;14.344;2023-07-09T08:47:00;99913.66;;;47.95;9.86
77112;BME280;66064;50.226;14.344;2023-07-09T08:49:42;99918.38;;;47.48;10.81
77112;BME280;66064;50.226;14.344;2023-07-09T08:52:24;99915.97;;;49.22;9.79
77112;BME280;66064;50.226;14.344;2023-07-09T08:54:52;99917.25;;;50.38;10.64
77112;BME280;66064;50.226;14.344;2023-07-09T08:57:24;99915.31;;;49.26;9.25
77112;BME280;66064;50.226;14.344;2023-07-09T08:59:59;99910.03;;;50.18;11.01
77112;BME280;66064;50.226;14.344;2023-07-09T09:05:19;99920.28;;;49.31;10.94
77112;BME280;66064;50.226;14.344;2023-07-09T09:07:57;99911.44;;;50.08;9.43
77112;BME280;66064;50.226;14.344;2023-07-09T09:10:34;99910.56;;;49.52;9.01
77112;BME280;66064;50.226;14.344;2023-07-09T09:13:14;99913.19;;;49.53;10.83
77112;BME280;66064;50.226;14.344;2023-07-09T09:15:46;99899.06;;;49.78;8.89
77112;BME280;66064;50.226;14.344;2023-07-09T09:18:18;99914.50;;;50.93;9.86
77112;BME280;66064;50.226;14.344;2023-07-09T09:23:46;99913.38;;;49.90;10.35
77112;BME280;66064;50.226;14.344;2023-07-09T09:26:34;99915.78;;;48.46;10.95
77112;BME280;66064;50.226;14.344;2023-07-09T09:29:14;99917.13;;;47.70;11.19
77112;BME280;66064;50.226;14.344;2023-07-09T09:31:48;99908.41;;;48.45;10.21
77112;BME280;66064;50.226;14.344;2023-07-09T09:34:19;99905.16;;;46.19;11.17
77112;BME280;66064;50.226;14.344;2023-07-09T09:36:47;99905.16;;;46.94;10.45
77112;BME280;66064;50.226;14.344;2023-07-09T09:39:13;99911.00;;;46.52;12.32
77112;BME280;66064;50.226;14.344;2023-07-09T09:41:39;99907.44;;;47.19;9.96
77112;BME280;66064;50.226;14.344;2023-07-09T09:44:17;99899.97;;;45.52;10.07
77112;BME280;66064;50.226;14.344;2023-07-09T09:46:43;99904.28;;;46.18;10.03
77112;BME280;66064;50.226;14.344;2023-07-09T09:49:10;99899.47;;;46.12;10.28
77112;BME280;66064;50.226;14.344;2023-07-09T09:51:39;99893.75;;;45.99;9.37
77112;BME280;66064;50.226;14.344;2023-07-09T09:54:14;99901.25;;;46.20;10.51
77112;BME280;66064;50.226;14.344;2023-07-09T09:56:42;99900.56;;;45.90;11.50
77112;BME280;66064;50.226;14.344;2023-07-09T09:59:25;99902.81;;;46.57;10.90
77112;BME280;66064;50.226;14.344;2023-07-09T10:01:58;99894.94;;;47.41;11.62
77112;BME280;66064;50.226;14.344;2023-07-09T10:04:24;99893.94;;;47.01;9.55
77112;BME280;66064;50.226;14.344;2023-07-09T10:06:56;99900.25;;;47.10;10.77
77112;BME280;66064;50.226;14.344;2023-07-09T10:17:45;99886.47;;;46.11;8.93
77112;BME280;66064;50.226;14.344;2023-07-09T10:20:46;99890.25;;;45.97;10.64
77112;BME280;66064;50.226;14.344;2023-07-09T10:23:27;99885.38;;;46.06;10.93
77112;BME280;66064;50.226;14.344;2023-07-09T10:25:58;99893.34;;;46.02;11.05
77112;BME280;66064;50.226;14.344;2023-07-09T10:31:58;99876.94;;;46.75;10.55
77112;BME280;66064;50.226;14.344;2023-07-09T10:34:32;99892.84;;;46.61;11.04
77112;BME280;66064;50.226;14.344;2023-07-09T10:37:18;99883.59;;;45.77;9.77
77112;BME280;66064;50.226;14.344;2023-07-09T10:39:51;99886.28;;;43.88;11.74
77112;BME280;66064;50.226;14.344;2023-07-09T10:44:57;99886.97;;;44.43;12.69
77112;BME280;66064;50.226;14.344;2023-07-09T10:47:33;99882.72;;;44.97;12.24
77112;BME280;66064;50.226;14.344;2023-07-09T10:50:02;99886.78;;;45.52;11.19
77112;BME280;66064;50.226;14.344;2023-07-09T10:52:33;99879.06;;;45.54;10.46
77112;BME280;66064;50.226;14.344;2023-07-09T10:55:40;99885.19;;;45.22;11.29
77112;BME280;66064;50.226;14.344;2023-07-09T10:58:10;99883.38;;;44.63;11.84
77112;BME280;66064;50.226;14.344;2023-07-09T11:00:41;99876.16;;;44.90;11.38
77112;BME280;66064;50.226;14.344;2023-07-09T11:03:35;99875.31;;;44.75;10.35
77112;BME280;66064;50.226;14.344;2023-07-09T11:06:03;99883.25;;;44.27;10.95
77112;BME280;66064;50.226;14.344;2023-07-09T11:08:34;99877.38;;;43.47;11.75
77112;BME280;66064;50.226;14.344;2023-07-09T11:11:23;99875.63;;;41.41;11.49
77112;BME280;66064;50.226;14.344;2023-07-09T11:13:56;99873.63;;;39.47;12.39
77112;BME280;66064;50.226;14.344;2023-07-09T11:16:33;99880.19;;;40.34;14.09
77112;BME280;66064;50.226;14.344;2023-07-09T11:19:03;99880.03;;;40.43;12.05
77112;BME280;66064;50.226;14.344;2023-07-09T11:21:30;99876.16;;;39.76;12.71
77112;BME280;66064;50.226;14.344;2023-07-09T11:23:57;99867.41;;;39.97;12.46
77112;BME280;66064;50.226;14.344;2023-07-09T11:26:35;99872.03;;;40.40;15.08
77112;BME280;66064;50.226;14.344;2023-07-09T11:31:41;99866.28;;;40.42;13.21
77112;BME280;66064;50.226;14.344;2023-07-09T11:36:56;99863.84;;;40.47;14.04
77112;BME280;66064;50.226;14.344;2023-07-09T11:42:33;99866.19;;;39.74;14.91
77112;BME280;66064;50.226;14.344;2023-07-09T11:45:09;99860.25;;;39.15;15.24
77112;BME280;66064;50.226;14.344;2023-07-09T11:47:46;99867.50;;;38.36;15.05
77112;BME280;66064;50.226;14.344;2023-07-09T11:50:22;99861.25;;;38.61;16.44
77112;BME280;66064;50.226;14.344;2023-07-09T11:52:54;99841.03;;;37.95;14.04
77112;BME280;66064;50.226;14.344;2023-07-09T11:55:26;99840.25;;;36.78;15.95
77112;BME280;66064;50.226;14.344;2023-07-09T11:57:59;99841.50;;;35.64;16.37
77112;BME280;66064;50.226;14.344;2023-07-09T12:00:28;99838.59;;;36.17;17.47
77112;BME280;66064;50.226;14.344;2023-07-09T12:02:56;99840.91;;;35.81;16.20
77112;BME280;66064;50.226;14.344;2023-07-09T12:05:27;99832.19;;;35.65;16.32
77112;BME280;66064;50.226;14.344;2023-07-09T12:07:55;99832.84;;;36.08;17.10
77112;BME280;66064;50.226;14.344;2023-07-09T12:10:24;99829.06;;;36.40;17.78
77112;BME280;66064;50.226;14.344;2023-07-09T12:12:59;99813.09;;;36.92;19.14
77112;BME280;66064;50.226;14.344;2023-07-09T12:15:26;99823.47;;;37.09;20.77
77112;BME280;66064;50.226;14.344;2023-07-09T12:17:58;99814.88;;;37.22;17.36
77112;BME280;66064;50.226;14.344;2023-07-09T12:20:25;99821.56;;;36.90;16.25
77112;BME280;66064;50.226;14.344;2023-07-09T12:22:52;99820.09;;;36.76;15.46
77112;BME280;66064;50.226;14.344;2023-07-09T12:25:22;99818.28;;;36.47;18.22
77112;BME280;66064;50.226;14.344;2023-07-09T12:27:49;99817.34;;;36.27;19.42
77112;BME280;66064;50.226;14.344;2023-07-09T12:30:15;99802.66;;;36.05;18.71
77112;BME280;66064;50.226;14.344;2023-07-09T12:32:45;99793.94;;;36.50;17.59
77112;BME280;66064;50.226;14.344;2023-07-09T12:35:13;99803.19;;;36.79;17.42
77112;BME280;66064;50.226;14.344;2023-07-09T12:37:43;99803.31;;;36.19;17.66
77112;BME280;66064;50.226;14.344;2023-07-09T12:40:23;99803.25;;;35.99;17.27
77112;BME280;66064;50.226;14.344;2023-07-09T12:42:54;99796.16;;;35.55;17.80
77112;BME280;66064;50.226;14.344;2023-07-09T12:45:23;99792.72;;;35.72;17.89
77112;BME280;66064;50.226;14.344;2023-07-09T12:47:50;99784.59;;;36.01;18.09
77112;BME280;66064;50.226;14.344;2023-07-09T12:52:48;99781.47;;;36.25;16.02
77112;BME280;66064;50.226;14.344;2023-07-09T12:55:25;99786.13;;;36.25;18.26
77112;BME280;66064;50.226;14.344;2023-07-09T12:57:55;99777.03;;;36.23;19.67
77112;BME280;66064;50.226;14.344;2023-07-09T13:00:22;99772.66;;;36.10;18.54
77112;BME280;66064;50.226;14.344;2023-07-09T13:02:55;99765.34;;;36.09;17.68
77112;BME280;66064;50.226;14.344;2023-07-09T13:05:24;99771.47;;;36.03;19.95
77112;BME280;66064;50.226;14.344;2023-07-09T13:08:01;99771.63;;;36.02;19.98
77112;BME280;66064;50.226;14.344;2023-07-09T13:10:31;99776.09;;;35.93;19.85
77112;BME280;66064;50.226;14.344;2023-07-09T13:13:02;99776.41;;;36.00;19.71
77112;BME280;66064;50.226;14.344;2023-07-09T13:15:31;99762.69;;;35.98;18.94
77112;BME280;66064;50.226;14.344;2023-07-09T13:18:06;99767.78;;;35.63;20.24
77112;BME280;66064;50.226;14.344;2023-07-09T13:20:34;99767.63;;;35.85;19.45
77112;BME280;66064;50.226;14.344;2023-07-09T13:23:12;99770.53;;;35.93;20.59
77112;BME280;66064;50.226;14.344;2023-07-09T13:25:42;99763.78;;;35.76;19.13
77112;BME280;66064;50.226;14.344;2023-07-09T13:28:31;99763.09;;;35.84;20.15
77112;BME280;66064;50.226;14.344;2023-07-09T13:31:11;99745.06;;;35.69;17.88
77112;BME280;66064;50.226;14.344;2023-07-09T13:33:43;99761.75;;;35.27;21.39
77112;BME280;66064;50.226;14.344;2023-07-09T13:36:10;99747.28;;;35.45;19.36
77112;BME280;66064;50.226;14.344;2023-07-09T13:38:38;99749.53;;;35.30;18.82
77112;BME280;66064;50.226;14.344;2023-07-09T13:41:13;99764.28;;;35.19;19.01
77112;BME280;66064;50.226;14.344;2023-07-09T13:43:47;99770.78;;;35.29;19.34